sensor_id;sensor_type;location;lat;lon;timestamp;P1;durP1;ratioP1;P2;durP2;ratioP2
71777;SDS011;59609;52.430;4.668;2023-06-22T00:01:20;34.65;;;16.83;;
71777;SDS011;59609;52.430;4.668;2023-06-22T00:03:47;35.00;;;16.17;;
71777;SDS011;59609;52.430;4.668;2023-06-22T00:06:13;33.45;;;15.32;;
71777;SDS011;59609;52.430;4.668;2023-06-22T00:08:38;41.00;;;16.63;;
71777;SDS011;59609;52.430;4.668;2023-06-22T00:11:05;35.58;;;16.50;;
71777;SDS011;59609;52.430;4.668;2023-06-22T00:13:30;39.30;;;16.67;;
71777;SDS011;59609;52.430;4.668;2023-06-22T00:15:55;39.28;;;17.05;;
71777;SDS011;59609;52.430;4.668;2023-06-22T00:18:21;34.30;;;17.08;;
71777;SDS011;59609;52.430;4.668;2023-06-22T00:20:46;38.75;;;17.02;;
71777;SDS011;59609;52.430;4.668;2023-06-22T00:23:11;33.75;;;16.52;;
71777;SDS011;59609;52.430;4.668;2023-06-22T00:25:38;37.67;;;17.65;;
71777;SDS011;59609;52.430;4.668;2023-06-22T00:30:35;37.67;;;17.10;;
71777;SDS011;59609;52.430;4.668;2023-06-22T00:33:01;40.72;;;17.70;;
71777;SDS011;59609;52.430;4.668;2023-06-22T00:35:27;35.28;;;16.10;;
71777;SDS011;59609;52.430;4.668;2023-06-22T00:37:55;37.63;;;16.58;;
71777;SDS011;59609;52.430;4.668;2023-06-22T00:43:12;39.90;;;15.90;;
71777;SDS011;59609;52.430;4.668;2023-06-22T00:45:38;37.42;;;15.43;;
71777;SDS011;59609;52.430;4.668;2023-06-22T00:48:03;37.83;;;17.08;;
71777;SDS011;59609;52.430;4.668;2023-06-22T00:50:32;34.85;;;16.30;;
71777;SDS011;59609;52.430;4.668;2023-06-22T00:55:45;37.78;;;16.67;;
71777;SDS011;59609;52.430;4.668;2023-06-22T00:58:12;43.38;;;18.08;;
71777;SDS011;59609;52.430;4.668;2023-06-22T01:00:41;43.40;;;18.40;;
71777;SDS011;59609;52.430;4.668;2023-06-22T01:03:07;42.78;;;17.65;;
71777;SDS011;59609;52.430;4.668;2023-06-22T01:05:41;40.17;;;17.55;;
71777;SDS011;59609;52.430;4.668;2023-06-22T01:11:01;39.58;;;17.73;;
71777;SDS011;59609;52.430;4.668;2023-06-22T01:16:23;40.92;;;17.65;;
71777;SDS011;59609;52.430;4.668;2023-06-22T01:21:56;42.00;;;17.90;;
71777;SDS011;59609;52.430;4.668;2023-06-22T01:24:44;41.88;;;19.08;;
71777;SDS011;59609;52.430;4.668;2023-06-22T01:27:39;42.55;;;17.77;;
71777;SDS011;59609;52.430;4.668;2023-06-22T01:30:16;42.03;;;18.23;;
71777;SDS011;59609;52.430;4.668;2023-06-22T01:32:43;40.80;;;17.75;;
71777;SDS011;59609;52.430;4.668;2023-06-22T01:35:09;41.33;;;17.52;;
71777;SDS011;59609;52.430;4.668;2023-06-22T01:37:36;42.65;;;17.98;;
71777;SDS011;59609;52.430;4.668;2023-06-22T01:40:08;40.22;;;18.17;;
71777;SDS011;59609;52.430;4.668;2023-06-22T01:42:38;39.63;;;17.27;;
71777;SDS011;59609;52.430;4.668;2023-06-22T01:48:26;40.85;;;17.65;;
71777;SDS011;59609;52.430;4.668;2023-06-22T01:50:52;38.80;;;17.17;;
71777;SDS011;59609;52.430;4.668;2023-06-22T01:53:20;44.13;;;19.40;;
71777;SDS011;59609;52.430;4.668;2023-06-22T01:55:49;43.00;;;19.08;;
71777;SDS011;59609;52.430;4.668;2023-06-22T01:58:15;43.42;;;19.10;;
71777;SDS011;59609;52.430;4.668;2023-06-22T02:00:45;40.42;;;19.27;;
71777;SDS011;59609;52.430;4.668;2023-06-22T02:03:26;42.30;;;19.15;;
71777;SDS011;59609;52.430;4.668;2023-06-22T02:06:04;44.40;;;18.85;;
71777;SDS011;59609;52.430;4.668;2023-06-22T02:08:46;43.03;;;19.55;;
71777;SDS011;59609;52.430;4.668;2023-06-22T02:11:15;44.33;;;18.20;;
71777;SDS011;59609;52.430;4.668;2023-06-22T02:13:45;39.63;;;18.83;;
71777;SDS011;59609;52.430;4.668;2023-06-22T02:16:11;42.70;;;18.33;;
71777;SDS011;59609;52.430;4.668;2023-06-22T02:18:38;40.50;;;17.70;;
71777;SDS011;59609;52.430;4.668;2023-06-22T02:21:05;39.17;;;16.92;;
71777;SDS011;59609;52.430;4.668;2023-06-22T02:23:32;39.97;;;17.27;;
71777;SDS011;59609;52.430;4.668;2023-06-22T02:26:00;36.83;;;17.90;;
71777;SDS011;59609;52.430;4.668;2023-06-22T02:28:30;44.38;;;19.05;;
71777;SDS011;59609;52.430;4.668;2023-06-22T02:30:55;40.25;;;18.80;;
71777;SDS011;59609;52.430;4.668;2023-06-22T02:33:24;36.03;;;17.45;;
71777;SDS011;59609;52.430;4.668;2023-06-22T02:35:52;41.03;;;18.30;;
71777;SDS011;59609;52.430;4.668;2023-06-22T02:38:21;42.00;;;18.75;;
71777;SDS011;59609;52.430;4.668;2023-06-22T02:40:48;41.17;;;18.15;;
71777;SDS011;59609;52.430;4.668;2023-06-22T02:43:13;41.20;;;18.23;;
71777;SDS011;59609;52.430;4.668;2023-06-22T02:45:39;44.63;;;18.70;;
71777;SDS011;59609;52.430;4.668;2023-06-22T02:48:07;40.25;;;17.85;;
71777;SDS011;59609;52.430;4.668;2023-06-22T02:50:33;43.72;;;19.17;;
71777;SDS011;59609;52.430;4.668;2023-06-22T02:52:58;40.53;;;18.55;;
71777;SDS011;59609;52.430;4.668;2023-06-22T02:55:23;43.42;;;18.58;;
71777;SDS011;59609;52.430;4.668;2023-06-22T02:57:49;46.67;;;17.92;;
71777;SDS011;59609;52.430;4.668;2023-06-22T03:00:17;38.60;;;17.73;;
71777;SDS011;59609;52.430;4.668;2023-06-22T03:02:44;39.35;;;17.38;;
71777;SDS011;59609;52.430;4.668;2023-06-22T03:05:14;40.33;;;17.20;;
71777;SDS011;59609;52.430;4.668;2023-06-22T03:07:43;39.60;;;17.42;;
71777;SDS011;59609;52.430;4.668;2023-06-22T03:10:13;39.92;;;16.67;;
71777;SDS011;59609;52.430;4.668;2023-06-22T03:12:39;37.40;;;16.88;;
71777;SDS011;59609;52.430;4.668;2023-06-22T03:15:06;39.17;;;16.17;;
71777;SDS011;59609;52.430;4.668;2023-06-22T03:17:33;41.47;;;17.40;;
71777;SDS011;59609;52.430;4.668;2023-06-22T03:20:00;37.25;;;17.00;;
71777;SDS011;59609;52.430;4.668;2023-06-22T03:22:25;38.40;;;17.55;;
71777;SDS011;59609;52.430;4.668;2023-06-22T03:24:51;32.63;;;16.95;;
71777;SDS011;59609;52.430;4.668;2023-06-22T03:27:19;39.65;;;18.58;;
71777;SDS011;59609;52.430;4.668;2023-06-22T03:29:44;37.13;;;17.90;;
71777;SDS011;59609;52.430;4.668;2023-06-22T03:32:10;42.88;;;19.70;;
71777;SDS011;59609;52.430;4.668;2023-06-22T03:34:35;43.90;;;20.25;;
71777;SDS011;59609;52.430;4.668;2023-06-22T03:39:29;38.47;;;18.08;;
71777;SDS011;59609;52.430;4.668;2023-06-22T03:41:57;40.05;;;18.23;;
71777;SDS011;59609;52.430;4.668;2023-06-22T03:46:48;41.20;;;19.00;;
71777;SDS011;59609;52.430;4.668;2023-06-22T03:49:13;38.53;;;17.42;;
71777;SDS011;59609;52.430;4.668;2023-06-22T03:51:38;40.53;;;20.08;;
71777;SDS011;59609;52.430;4.668;2023-06-22T03:54:07;40.88;;;18.92;;
71777;SDS011;59609;52.430;4.668;2023-06-22T03:56:32;43.30;;;19.70;;
71777;SDS011;59609;52.430;4.668;2023-06-22T03:59:01;44.97;;;19.20;;
71777;SDS011;59609;52.430;4.668;2023-06-22T04:01:26;43.40;;;20.23;;
71777;SDS011;59609;52.430;4.668;2023-06-22T04:03:51;41.70;;;19.60;;
71777;SDS011;59609;52.430;4.668;2023-06-22T04:06:17;40.95;;;19.58;;
71777;SDS011;59609;52.430;4.668;2023-06-22T04:08:44;43.42;;;21.05;;
71777;SDS011;59609;52.430;4.668;2023-06-22T04:11:13;42.40;;;19.55;;
71777;SDS011;59609;52.430;4.668;2023-06-22T04:13:44;43.78;;;20.20;;
71777;SDS011;59609;52.430;4.668;2023-06-22T04:16:10;43.42;;;20.75;;
71777;SDS011;59609;52.430;4.668;2023-06-22T04:18:35;45.80;;;20.75;;
71777;SDS011;59609;52.430;4.668;2023-06-22T04:21:01;41.13;;;20.17;;
71777;SDS011;59609;52.430;4.668;2023-06-22T04:23:27;43.15;;;21.60;;
71777;SDS011;59609;52.430;4.668;2023-06-22T04:25:52;40.90;;;20.17;;
71777;SDS011;59609;52.430;4.668;2023-06-22T04:28:21;43.17;;;20.17;;
71777;SDS011;59609;52.430;4.668;2023-06-22T04:30:46;44.95;;;21.17;;
71777;SDS011;59609;52.430;4.668;2023-06-22T04:33:15;44.33;;;21.83;;
71777;SDS011;59609;52.430;4.668;2023-06-22T04:35:41;42.65;;;20.77;;
71777;SDS011;59609;52.430;4.668;2023-06-22T04:38:12;46.03;;;20.52;;
71777;SDS011;59609;52.430;4.668;2023-06-22T04:40:39;45.20;;;21.55;;
71777;SDS011;59609;52.430;4.668;2023-06-22T04:43:05;45.90;;;21.80;;
71777;SDS011;59609;52.430;4.668;2023-06-22T04:45:34;45.33;;;22.17;;
71777;SDS011;59609;52.430;4.668;2023-06-22T04:48:02;47.15;;;20.90;;
71777;SDS011;59609;52.430;4.668;2023-06-22T04:50:28;48.03;;;21.70;;
71777;SDS011;59609;52.430;4.668;2023-06-22T04:52:53;42.88;;;20.88;;
71777;SDS011;59609;52.430;4.668;2023-06-22T04:55:19;44.80;;;21.13;;
71777;SDS011;59609;52.430;4.668;2023-06-22T04:57:45;40.85;;;21.30;;
71777;SDS011;59609;52.430;4.668;2023-06-22T05:00:14;43.35;;;21.35;;
71777;SDS011;59609;52.430;4.668;2023-06-22T05:02:47;37.17;;;19.50;;
71777;SDS011;59609;52.430;4.668;2023-06-22T05:07:49;35.55;;;19.27;;
71777;SDS011;59609;52.430;4.668;2023-06-22T05:10:17;34.13;;;19.02;;
71777;SDS011;59609;52.430;4.668;2023-06-22T05:12:45;33.15;;;18.50;;
71777;SDS011;59609;52.430;4.668;2023-06-22T05:15:11;34.95;;;19.52;;
71777;SDS011;59609;52.430;4.668;2023-06-22T05:17:36;34.88;;;20.10;;
71777;SDS011;59609;52.430;4.668;2023-06-22T05:20:08;33.35;;;19.38;;
71777;SDS011;59609;52.430;4.668;2023-06-22T05:22:36;32.75;;;19.48;;
71777;SDS011;59609;52.430;4.668;2023-06-22T05:25:02;33.72;;;19.85;;
71777;SDS011;59609;52.430;4.668;2023-06-22T05:27:28;32.80;;;20.35;;
71777;SDS011;59609;52.430;4.668;2023-06-22T05:29:53;33.60;;;19.00;;
71777;SDS011;59609;52.430;4.668;2023-06-22T05:32:19;33.30;;;20.58;;
71777;SDS011;59609;52.430;4.668;2023-06-22T05:34:45;33.75;;;20.33;;
71777;SDS011;59609;52.430;4.668;2023-06-22T05:37:10;34.60;;;20.15;;
71777;SDS011;59609;52.430;4.668;2023-06-22T05:39:37;34.83;;;20.30;;
71777;SDS011;59609;52.430;4.668;2023-06-22T05:42:04;34.85;;;21.48;;
71777;SDS011;59609;52.430;4.668;2023-06-22T05:44:30;33.08;;;19.35;;
71777;SDS011;59609;52.430;4.668;2023-06-22T05:46:56;33.05;;;19.05;;
71777;SDS011;59609;52.430;4.668;2023-06-22T05:49:21;32.92;;;19.30;;
71777;SDS011;59609;52.430;4.668;2023-06-22T05:51:48;31.40;;;18.95;;
71777;SDS011;59609;52.430;4.668;2023-06-22T05:54:13;32.45;;;19.75;;
71777;SDS011;59609;52.430;4.668;2023-06-22T05:56:40;34.10;;;19.00;;
71777;SDS011;59609;52.430;4.668;2023-06-22T05:59:06;34.00;;;19.40;;
71777;SDS011;59609;52.430;4.668;2023-06-22T06:01:31;34.45;;;20.48;;
71777;SDS011;59609;52.430;4.668;2023-06-22T06:06:24;31.97;;;19.30;;
71777;SDS011;59609;52.430;4.668;2023-06-22T06:08:53;37.20;;;19.73;;
71777;SDS011;59609;52.430;4.668;2023-06-22T06:11:19;31.73;;;19.50;;
71777;SDS011;59609;52.430;4.668;2023-06-22T06:13:50;34.67;;;20.00;;
71777;SDS011;59609;52.430;4.668;2023-06-22T06:16:15;36.95;;;18.95;;
71777;SDS011;59609;52.430;4.668;2023-06-22T06:18:41;31.75;;;18.60;;
71777;SDS011;59609;52.430;4.668;2023-06-22T06:21:06;36.28;;;20.55;;
71777;SDS011;59609;52.430;4.668;2023-06-22T06:23:32;29.98;;;18.40;;
71777;SDS011;59609;52.430;4.668;2023-06-22T06:25:57;30.42;;;18.45;;
71777;SDS011;59609;52.430;4.668;2023-06-22T06:28:24;29.52;;;19.15;;
71777;SDS011;59609;52.430;4.668;2023-06-22T06:30:50;30.45;;;19.23;;
71777;SDS011;59609;52.430;4.668;2023-06-22T06:33:16;31.48;;;19.38;;
71777;SDS011;59609;52.430;4.668;2023-06-22T06:35:42;29.88;;;19.25;;
71777;SDS011;59609;52.430;4.668;2023-06-22T06:38:07;32.65;;;18.88;;
71777;SDS011;59609;52.430;4.668;2023-06-22T06:40:33;33.58;;;20.33;;
71777;SDS011;59609;52.430;4.668;2023-06-22T06:42:58;31.55;;;20.60;;
71777;SDS011;59609;52.430;4.668;2023-06-22T06:45:24;30.27;;;19.00;;
71777;SDS011;59609;52.430;4.668;2023-06-22T06:47:51;29.33;;;18.88;;
71777;SDS011;59609;52.430;4.668;2023-06-22T06:50:20;30.38;;;19.23;;
71777;SDS011;59609;52.430;4.668;2023-06-22T06:52:48;35.47;;;20.58;;
71777;SDS011;59609;52.430;4.668;2023-06-22T06:55:15;31.23;;;19.02;;
71777;SDS011;59609;52.430;4.668;2023-06-22T06:57:41;27.95;;;17.88;;
71777;SDS011;59609;52.430;4.668;2023-06-22T07:00:08;32.25;;;19.92;;
71777;SDS011;59609;52.430;4.668;2023-06-22T07:02:39;29.63;;;19.08;;
71777;SDS011;59609;52.430;4.668;2023-06-22T07:05:06;27.17;;;18.25;;
71777;SDS011;59609;52.430;4.668;2023-06-22T07:07:32;27.95;;;18.35;;
71777;SDS011;59609;52.430;4.668;2023-06-22T07:09:58;25.48;;;18.05;;
71777;SDS011;59609;52.430;4.668;2023-06-22T07:12:23;28.00;;;18.77;;
71777;SDS011;59609;52.430;4.668;2023-06-22T07:14:49;28.70;;;17.90;;
71777;SDS011;59609;52.430;4.668;2023-06-22T07:17:15;25.77;;;16.73;;
71777;SDS011;59609;52.430;4.668;2023-06-22T07:19:40;28.70;;;16.60;;
71777;SDS011;59609;52.430;4.668;2023-06-22T07:22:10;24.27;;;17.10;;
71777;SDS011;59609;52.430;4.668;2023-06-22T07:24:35;26.10;;;15.98;;
71777;SDS011;59609;52.430;4.668;2023-06-22T07:27:02;23.83;;;15.40;;
71777;SDS011;59609;52.430;4.668;2023-06-22T07:29:34;21.20;;;15.73;;
71777;SDS011;59609;52.430;4.668;2023-06-22T07:32:00;23.42;;;15.73;;
71777;SDS011;59609;52.430;4.668;2023-06-22T07:34:32;18.20;;;13.05;;
71777;SDS011;59609;52.430;4.668;2023-06-22T07:36:58;17.23;;;11.73;;
71777;SDS011;59609;52.430;4.668;2023-06-22T07:39:24;14.52;;;9.98;;
71777;SDS011;59609;52.430;4.668;2023-06-22T07:41:51;15.73;;;9.50;;
71777;SDS011;59609;52.430;4.668;2023-06-22T07:44:17;13.82;;;9.43;;
71777;SDS011;59609;52.430;4.668;2023-06-22T07:46:42;13.40;;;9.73;;
71777;SDS011;59609;52.430;4.668;2023-06-22T07:49:07;15.55;;;10.38;;
71777;SDS011;59609;52.430;4.668;2023-06-22T07:51:33;14.88;;;11.50;;
71777;SDS011;59609;52.430;4.668;2023-06-22T07:53:59;15.18;;;10.85;;
71777;SDS011;59609;52.430;4.668;2023-06-22T07:56:24;14.57;;;10.65;;
71777;SDS011;59609;52.430;4.668;2023-06-22T07:58:50;18.10;;;11.50;;
71777;SDS011;59609;52.430;4.668;2023-06-22T08:01:15;13.30;;;9.77;;
71777;SDS011;59609;52.430;4.668;2023-06-22T08:03:44;15.00;;;9.85;;
71777;SDS011;59609;52.430;4.668;2023-06-22T08:06:16;14.25;;;10.50;;
71777;SDS011;59609;52.430;4.668;2023-06-22T08:08:42;13.57;;;11.10;;
71777;SDS011;59609;52.430;4.668;2023-06-22T08:11:08;14.68;;;12.00;;
71777;SDS011;59609;52.430;4.668;2023-06-22T08:13:34;17.58;;;14.68;;
71777;SDS011;59609;52.430;4.668;2023-06-22T08:15:59;16.42;;;13.75;;
71777;SDS011;59609;52.430;4.668;2023-06-22T08:18:25;20.80;;;15.90;;
71777;SDS011;59609;52.430;4.668;2023-06-22T08:20:50;21.65;;;16.00;;
71777;SDS011;59609;52.430;4.668;2023-06-22T08:23:15;20.00;;;16.80;;
71777;SDS011;59609;52.430;4.668;2023-06-22T08:25:45;22.40;;;17.92;;
71777;SDS011;59609;52.430;4.668;2023-06-22T08:28:10;21.38;;;17.95;;
71777;SDS011;59609;52.430;4.668;2023-06-22T08:30:36;22.90;;;18.33;;
71777;SDS011;59609;52.430;4.668;2023-06-22T08:33:01;24.88;;;20.90;;
71777;SDS011;59609;52.430;4.668;2023-06-22T08:35:33;23.88;;;20.48;;
71777;SDS011;59609;52.430;4.668;2023-06-22T08:37:59;25.98;;;20.65;;
71777;SDS011;59609;52.430;4.668;2023-06-22T08:40:25;23.33;;;18.73;;
71777;SDS011;59609;52.430;4.668;2023-06-22T08:42:50;21.70;;;17.17;;
71777;SDS011;59609;52.430;4.668;2023-06-22T08:45:18;22.48;;;20.05;;
71777;SDS011;59609;52.430;4.668;2023-06-22T08:47:44;21.80;;;18.75;;
71777;SDS011;59609;52.430;4.668;2023-06-22T08:50:09;22.50;;;17.70;;
71777;SDS011;59609;52.430;4.668;2023-06-22T08:52:39;21.02;;;16.30;;
71777;SDS011;59609;52.430;4.668;2023-06-22T08:55:08;18.88;;;15.90;;
71777;SDS011;59609;52.430;4.668;2023-06-22T08:57:34;16.73;;;14.18;;
71777;SDS011;59609;52.430;4.668;2023-06-22T09:00:02;16.63;;;13.00;;
71777;SDS011;59609;52.430;4.668;2023-06-22T09:04:55;18.83;;;11.38;;
71777;SDS011;59609;52.430;4.668;2023-06-22T09:07:22;14.43;;;11.18;;
71777;SDS011;59609;52.430;4.668;2023-06-22T09:09:48;12.10;;;10.52;;
71777;SDS011;59609;52.430;4.668;2023-06-22T09:12:14;13.68;;;11.18;;
71777;SDS011;59609;52.430;4.668;2023-06-22T09:14:39;13.82;;;11.15;;
71777;SDS011;59609;52.430;4.668;2023-06-22T09:17:05;16.27;;;12.20;;
71777;SDS011;59609;52.430;4.668;2023-06-22T09:19:30;14.75;;;11.18;;
71777;SDS011;59609;52.430;4.668;2023-06-22T09:21:55;13.77;;;11.52;;
71777;SDS011;59609;52.430;4.668;2023-06-22T09:24:21;17.98;;;12.77;;
71777;SDS011;59609;52.430;4.668;2023-06-22T09:26:46;17.63;;;13.77;;
71777;SDS011;59609;52.430;4.668;2023-06-22T09:29:15;17.08;;;11.80;;
71777;SDS011;59609;52.430;4.668;2023-06-22T09:31:40;15.88;;;13.40;;
71777;SDS011;59609;52.430;4.668;2023-06-22T09:34:09;17.85;;;13.48;;
71777;SDS011;59609;52.430;4.668;2023-06-22T09:36:34;16.02;;;12.75;;
71777;SDS011;59609;52.430;4.668;2023-06-22T09:39:00;16.73;;;12.43;;
71777;SDS011;59609;52.430;4.668;2023-06-22T09:41:30;16.45;;;12.10;;
71777;SDS011;59609;52.430;4.668;2023-06-22T09:43:59;16.90;;;11.60;;
71777;SDS011;59609;52.430;4.668;2023-06-22T09:46:24;15.70;;;12.20;;
71777;SDS011;59609;52.430;4.668;2023-06-22T09:48:56;15.80;;;11.75;;
71777;SDS011;59609;52.430;4.668;2023-06-22T09:51:22;15.95;;;10.95;;
71777;SDS011;59609;52.430;4.668;2023-06-22T09:53:48;14.13;;;9.77;;
71777;SDS011;59609;52.430;4.668;2023-06-22T09:56:14;17.08;;;12.13;;
71777;SDS011;59609;52.430;4.668;2023-06-22T09:58:41;12.85;;;11.02;;
71777;SDS011;59609;52.430;4.668;2023-06-22T10:01:08;15.38;;;10.82;;
71777;SDS011;59609;52.430;4.668;2023-06-22T10:03:33;13.50;;;10.30;;
71777;SDS011;59609;52.430;4.668;2023-06-22T10:05:59;11.93;;;10.20;;
71777;SDS011;59609;52.430;4.668;2023-06-22T10:08:24;13.13;;;10.15;;
71777;SDS011;59609;52.430;4.668;2023-06-22T10:10:49;12.40;;;10.13;;
71777;SDS011;59609;52.430;4.668;2023-06-22T10:13:15;14.30;;;10.80;;
71777;SDS011;59609;52.430;4.668;2023-06-22T10:15:41;11.63;;;9.48;;
71777;SDS011;59609;52.430;4.668;2023-06-22T10:18:10;13.35;;;9.13;;
71777;SDS011;59609;52.430;4.668;2023-06-22T10:20:35;10.77;;;8.60;;
71777;SDS011;59609;52.430;4.668;2023-06-22T10:23:01;11.65;;;9.40;;
71777;SDS011;59609;52.430;4.668;2023-06-22T10:25:26;12.38;;;9.50;;
71777;SDS011;59609;52.430;4.668;2023-06-22T10:27:52;10.77;;;8.85;;
71777;SDS011;59609;52.430;4.668;2023-06-22T10:30:17;13.02;;;8.82;;
71777;SDS011;59609;52.430;4.668;2023-06-22T10:32:42;10.63;;;8.50;;
71777;SDS011;59609;52.430;4.668;2023-06-22T10:35:08;12.32;;;9.70;;
71777;SDS011;59609;52.430;4.668;2023-06-22T10:37:35;10.18;;;7.90;;
71777;SDS011;59609;52.430;4.668;2023-06-22T10:40:01;10.93;;;7.90;;
71777;SDS011;59609;52.430;4.668;2023-06-22T10:42:27;12.50;;;7.65;;
71777;SDS011;59609;52.430;4.668;2023-06-22T10:44:52;8.93;;;7.20;;
71777;SDS011;59609;52.430;4.668;2023-06-22T10:47:18;9.40;;;7.10;;
71777;SDS011;59609;52.430;4.668;2023-06-22T10:49:43;13.60;;;7.95;;
71777;SDS011;59609;52.430;4.668;2023-06-22T10:52:14;11.43;;;8.80;;
71777;SDS011;59609;52.430;4.668;2023-06-22T10:54:40;11.63;;;8.40;;
71777;SDS011;59609;52.430;4.668;2023-06-22T10:57:09;14.93;;;7.47;;
71777;SDS011;59609;52.430;4.668;2023-06-22T10:59:34;10.20;;;7.68;;
71777;SDS011;59609;52.430;4.668;2023-06-22T11:02:00;9.30;;;7.93;;
71777;SDS011;59609;52.430;4.668;2023-06-22T11:04:25;9.45;;;6.97;;
71777;SDS011;59609;52.430;4.668;2023-06-22T11:06:54;9.43;;;7.40;;
71777;SDS011;59609;52.430;4.668;2023-06-22T11:09:21;11.45;;;7.72;;
71777;SDS011;59609;52.430;4.668;2023-06-22T11:11:47;9.57;;;7.47;;
71777;SDS011;59609;52.430;4.668;2023-06-22T11:14:19;8.35;;;7.22;;
71777;SDS011;59609;52.430;4.668;2023-06-22T11:16:45;9.90;;;7.88;;
71777;SDS011;59609;52.430;4.668;2023-06-22T11:19:11;10.27;;;7.30;;
71777;SDS011;59609;52.430;4.668;2023-06-22T11:21:37;10.13;;;7.20;;
71777;SDS011;59609;52.430;4.668;2023-06-22T11:24:02;10.77;;;8.15;;
71777;SDS011;59609;52.430;4.668;2023-06-22T11:26:28;9.88;;;7.38;;
71777;SDS011;59609;52.430;4.668;2023-06-22T11:28:53;12.32;;;8.35;;
71777;SDS011;59609;52.430;4.668;2023-06-22T11:31:22;9.85;;;8.27;;
71777;SDS011;59609;52.430;4.668;2023-06-22T11:33:47;10.25;;;7.78;;
71777;SDS011;59609;52.430;4.668;2023-06-22T11:36:19;10.55;;;8.00;;
71777;SDS011;59609;52.430;4.668;2023-06-22T11:38:47;12.38;;;8.75;;
71777;SDS011;59609;52.430;4.668;2023-06-22T11:41:13;12.93;;;7.82;;
71777;SDS011;59609;52.430;4.668;2023-06-22T11:43:38;11.13;;;8.82;;
71777;SDS011;59609;52.430;4.668;2023-06-22T11:46:06;12.82;;;8.60;;
71777;SDS011;59609;52.430;4.668;2023-06-22T11:48:32;10.98;;;8.35;;
71777;SDS011;59609;52.430;4.668;2023-06-22T11:50:58;10.45;;;7.88;;
71777;SDS011;59609;52.430;4.668;2023-06-22T11:53:25;10.27;;;8.65;;
71777;SDS011;59609;52.430;4.668;2023-06-22T11:55:51;11.00;;;8.38;;
71777;SDS011;59609;52.430;4.668;2023-06-22T11:58:19;11.55;;;9.10;;
71777;SDS011;59609;52.430;4.668;2023-06-22T12:00:44;9.00;;;7.93;;
71777;SDS011;59609;52.430;4.668;2023-06-22T12:03:10;8.88;;;7.43;;
71777;SDS011;59609;52.430;4.668;2023-06-22T12:05:36;9.43;;;7.75;;
71777;SDS011;59609;52.430;4.668;2023-06-22T12:08:02;9.15;;;6.95;;
71777;SDS011;59609;52.430;4.668;2023-06-22T12:10:28;9.35;;;6.50;;
71777;SDS011;59609;52.430;4.668;2023-06-22T12:12:53;7.63;;;6.57;;
71777;SDS011;59609;52.430;4.668;2023-06-22T12:15:19;12.25;;;7.95;;
71777;SDS011;59609;52.430;4.668;2023-06-22T12:17:51;8.52;;;7.18;;
71777;SDS011;59609;52.430;4.668;2023-06-22T12:20:16;13.52;;;8.85;;
71777;SDS011;59609;52.430;4.668;2023-06-22T12:22:42;8.50;;;7.40;;
71777;SDS011;59609;52.430;4.668;2023-06-22T12:25:08;11.15;;;9.52;;
71777;SDS011;59609;52.430;4.668;2023-06-22T12:27:34;13.73;;;9.70;;
71777;SDS011;59609;52.430;4.668;2023-06-22T12:30:03;14.25;;;10.70;;
71777;SDS011;59609;52.430;4.668;2023-06-22T12:32:29;12.55;;;10.77;;
71777;SDS011;59609;52.430;4.668;2023-06-22T12:34:55;12.38;;;10.32;;
71777;SDS011;59609;52.430;4.668;2023-06-22T12:37:21;10.30;;;9.23;;
71777;SDS011;59609;52.430;4.668;2023-06-22T12:39:46;12.20;;;9.48;;
71777;SDS011;59609;52.430;4.668;2023-06-22T12:42:12;11.82;;;9.25;;
71777;SDS011;59609;52.430;4.668;2023-06-22T12:44:37;11.52;;;8.52;;
71777;SDS011;59609;52.430;4.668;2023-06-22T12:47:04;11.07;;;7.95;;
71777;SDS011;59609;52.430;4.668;2023-06-22T12:49:30;10.13;;;8.75;;
71777;SDS011;59609;52.430;4.668;2023-06-22T12:51:55;10.65;;;8.10;;
71777;SDS011;59609;52.430;4.668;2023-06-22T12:54:21;9.70;;;8.18;;
71777;SDS011;59609;52.430;4.668;2023-06-22T12:56:46;12.02;;;8.10;;
71777;SDS011;59609;52.430;4.668;2023-06-22T12:59:12;10.27;;;8.30;;
71777;SDS011;59609;52.430;4.668;2023-06-22T13:01:37;10.50;;;8.55;;
71777;SDS011;59609;52.430;4.668;2023-06-22T13:04:06;11.68;;;9.68;;
71777;SDS011;59609;52.430;4.668;2023-06-22T13:06:31;15.57;;;10.63;;
71777;SDS011;59609;52.430;4.668;2023-06-22T13:08:57;14.95;;;11.60;;
71777;SDS011;59609;52.430;4.668;2023-06-22T13:11:22;14.18;;;10.63;;
71777;SDS011;59609;52.430;4.668;2023-06-22T13:13:47;15.60;;;10.50;;
71777;SDS011;59609;52.430;4.668;2023-06-22T13:16:13;14.07;;;10.20;;
71777;SDS011;59609;52.430;4.668;2023-06-22T13:18:38;12.75;;;10.30;;
71777;SDS011;59609;52.430;4.668;2023-06-22T13:21:04;16.95;;;10.82;;
71777;SDS011;59609;52.430;4.668;2023-06-22T13:23:29;13.02;;;9.98;;
71777;SDS011;59609;52.430;4.668;2023-06-22T13:25:55;13.13;;;10.02;;
71777;SDS011;59609;52.430;4.668;2023-06-22T13:28:20;13.27;;;9.68;;
71777;SDS011;59609;52.430;4.668;2023-06-22T13:30:46;11.43;;;9.20;;
71777;SDS011;59609;52.430;4.668;2023-06-22T13:33:15;11.48;;;8.70;;
71777;SDS011;59609;52.430;4.668;2023-06-22T13:35:41;11.38;;;7.97;;
71777;SDS011;59609;52.430;4.668;2023-06-22T13:38:13;9.60;;;8.05;;
71777;SDS011;59609;52.430;4.668;2023-06-22T13:40:38;8.68;;;7.38;;
71777;SDS011;59609;52.430;4.668;2023-06-22T13:43:04;10.90;;;8.13;;
71777;SDS011;59609;52.430;4.668;2023-06-22T13:45:30;9.82;;;7.68;;
71777;SDS011;59609;52.430;4.668;2023-06-22T13:47:56;10.60;;;7.57;;
71777;SDS011;59609;52.430;4.668;2023-06-22T13:50:21;11.15;;;7.15;;
71777;SDS011;59609;52.430;4.668;2023-06-22T13:52:47;13.15;;;7.35;;
71777;SDS011;59609;52.430;4.668;2023-06-22T13:55:12;9.23;;;6.82;;
71777;SDS011;59609;52.430;4.668;2023-06-22T13:57:39;12.82;;;6.53;;
71777;SDS011;59609;52.430;4.668;2023-06-22T14:00:05;10.43;;;6.63;;
71777;SDS011;59609;52.430;4.668;2023-06-22T14:04:58;9.97;;;7.20;;
71777;SDS011;59609;52.430;4.668;2023-06-22T14:07:23;9.90;;;7.70;;
71777;SDS011;59609;52.430;4.668;2023-06-22T14:09:49;10.90;;;6.88;;
71777;SDS011;59609;52.430;4.668;2023-06-22T14:12:15;8.00;;;6.63;;
71777;SDS011;59609;52.430;4.668;2023-06-22T14:14:42;8.40;;;6.57;;
71777;SDS011;59609;52.430;4.668;2023-06-22T14:17:08;8.70;;;6.25;;
71777;SDS011;59609;52.430;4.668;2023-06-22T14:19:36;9.40;;;6.57;;
71777;SDS011;59609;52.430;4.668;2023-06-22T14:22:04;8.07;;;6.18;;
71777;SDS011;59609;52.430;4.668;2023-06-22T14:24:33;10.63;;;7.40;;
71777;SDS011;59609;52.430;4.668;2023-06-22T14:26:59;7.72;;;6.50;;
71777;SDS011;59609;52.430;4.668;2023-06-22T14:29:27;8.55;;;6.07;;
71777;SDS011;59609;52.430;4.668;2023-06-22T14:31:58;6.93;;;5.93;;
71777;SDS011;59609;52.430;4.668;2023-06-22T14:34:24;8.00;;;6.72;;
71777;SDS011;59609;52.430;4.668;2023-06-22T14:36:49;9.05;;;6.57;;
71777;SDS011;59609;52.430;4.668;2023-06-22T14:39:20;7.82;;;5.93;;
71777;SDS011;59609;52.430;4.668;2023-06-22T14:41:49;7.47;;;5.95;;
71777;SDS011;59609;52.430;4.668;2023-06-22T14:44:15;10.35;;;6.63;;
71777;SDS011;59609;52.430;4.668;2023-06-22T14:46:46;7.80;;;6.15;;
71777;SDS011;59609;52.430;4.668;2023-06-22T14:49:18;9.18;;;5.95;;
71777;SDS011;59609;52.430;4.668;2023-06-22T14:51:43;8.15;;;6.68;;
71777;SDS011;59609;52.430;4.668;2023-06-22T14:54:08;7.70;;;6.03;;
71777;SDS011;59609;52.430;4.668;2023-06-22T14:56:34;8.82;;;6.15;;
71777;SDS011;59609;52.430;4.668;2023-06-22T14:59:00;7.35;;;5.60;;
71777;SDS011;59609;52.430;4.668;2023-06-22T15:01:25;7.65;;;6.25;;